• Join FlightAware (Why Join?)
  • Login
  • US Flag 
10:07PM EST


 

Airport Tracker/Info


-or-


 

Live Flight TrackerFlight Track Log ✈ WIG469 ✈ 16-Aug-2013 ✈ KMHT - KRKD

Flight Track Log - Related Links

Times and Time Zones

All times are in EDT time to prevent confusion due to time zone crossing. See the WIG469 flight status page for this flight to view local times or setup timezone preferences in your user account.

Time Position Orientation Groundspeed Altitude Reporting Facility
EDT Latitude Longitude Course Direction KTS MPH feet Rate Location/Type
02:54PM 42.9500 -71.4500 56° Northeast 136 157 800  Level KA90
02:55PM 42.9833 -71.3833 56° Northeast 160 184 3,900 1,920 Climbing KA90
02:56PM 43.0167 -71.3333 48° Northeast 172 198 5,700 1,560 Climbing KA90
02:57PM 43.0333 -71.2833 65° Northeast 179 206 6,900 1,380 Climbing KA90
02:58PM 43.0667 -71.2167 56° Northeast 179 206 8,400 1,080 Climbing KA90
02:59PM 43.1000 -71.1667 48° Northeast 198 228 9,100 300 Climbing KA90
03:00PM 43.1333 -71.1000 56° Northeast 216 249 9,100 -60 Level KA90
03:01PM 43.1667 -71.0333 56° Northeast 220 253 9,000 -60 Descending KA90
03:02PM 43.2000 -70.9500 61° Northeast 222 255 9,000  Level KA90
03:04PM 43.2306 -70.8687 63° Northeast  Level FlightAware Approximate
03:11PM 43.4156 -70.4423 57° Northeast  Level FlightAware Approximate
03:12PM 43.4437 -70.3832 57° Northeast  Level FlightAware Approximate
03:13PM 43.4719 -70.3241 57° Northeast  Level FlightAware Approximate
03:14PM 43.5000 -70.2649 57° Northeast  Level FlightAware Approximate
03:15PM 43.5281 -70.2057 57° Northeast  Level FlightAware Approximate
03:16PM 43.5561 -70.1464 57° Northeast  Level FlightAware Approximate
03:17PM 43.5842 -70.0870 57° Northeast  Level FlightAware Approximate
03:18PM 43.6121 -70.0276 57° Northeast  Level FlightAware Approximate
03:19PM 43.6401 -69.9681 57° Northeast  Level FlightAware Approximate
03:20PM 43.6680 -69.9086 57° Northeast  Level FlightAware Approximate
03:21PM 43.6959 -69.8491 57° Northeast  Level FlightAware Approximate
03:22PM 43.7238 -69.7895 57° Northeast  Level FlightAware Approximate
03:23PM 43.7518 -69.7298 55° Northeast  Level FlightAware Approximate
03:24PM 43.7810 -69.6714 55° Northeast  Level FlightAware Approximate
03:25PM 43.8102 -69.6130 55° Northeast  Level FlightAware Approximate
03:26PM 43.8394 -69.5545 55° Northeast  Level FlightAware Approximate
03:27PM 43.8687 -69.4960 55° Northeast  Level FlightAware Approximate
03:28PM 43.8979 -69.4375 55° Northeast  Level FlightAware Approximate
03:29PM 43.9200 -69.3733 65° Northeast  Level FlightAware Approximate
03:30PM 43.9493 -69.3174 36° Northeast  Level FlightAware Approximate